Time;durP1;ratioP1;P1;durP2;ratioP2;P2;SDS_P1;SDS_P2;PMS_P1;PMS_P2;Temp;Humidity;BMP_temperature;BMP_pressure;BME280_temperature;BME280_humidity;BME280_pressure;Samples;Min_cycle;Max_cycle;Signal;HPM_P1;HPM_P2
2024/01/11 00:02:08;;;;;;;1.43;1.43;;;;;;;-3.70;100.00;101548.84;5071872;28;20647;-81
2024/01/11 00:04:36;;;;;;;1.30;1.30;;;;;;;-3.60;100.00;101552.38;5070664;28;20659;-80
2024/01/11 00:07:03;;;;;;;1.00;1.00;;;;;;;-3.71;100.00;101547.94;5035012;28;20198;-81
2024/01/11 00:09:30;;;;;;;1.40;1.40;;;;;;;-3.87;100.00;101538.75;5070753;28;20209;-81
2024/01/11 00:11:57;;;;;;;2.10;2.10;;;;;;;-3.86;100.00;101551.59;5070073;28;20222;-80
2024/01/11 00:14:23;;;;;;;1.97;1.90;;;;;;;-4.16;100.00;101513.19;5070271;28;20199;-80
2024/01/11 00:16:50;;;;;;;3.90;3.33;;;;;;;-4.06;100.00;101551.31;5070125;28;20206;-79
2024/01/11 00:19:17;;;;;;;1.97;1.97;;;;;;;-4.25;100.00;101540.19;5070546;28;20245;-81
2024/01/11 00:21:45;;;;;;;2.50;2.43;;;;;;;-4.39;100.00;101515.19;5069937;28;20202;-80
2024/01/11 00:24:12;;;;;;;2.93;2.10;;;;;;;-4.27;100.00;101540.03;5070412;28;20195;-79
2024/01/11 00:26:39;;;;;;;2.93;2.83;;;;;;;-4.73;100.00;101458.78;5070515;28;20201;-81
2024/01/11 00:29:05;;;;;;;1.47;1.47;;;;;;;-4.29;100.00;101526.34;5069937;28;20225;-79
2024/01/11 00:31:32;;;;;;;1.53;1.53;;;;;;;-4.19;100.00;101528.09;5069408;28;20261;-78
2024/01/11 00:33:59;;;;;;;1.30;1.30;;;;;;;-4.11;100.00;101515.44;5071840;28;20195;-80
2024/01/11 00:36:25;;;;;;;1.10;1.10;;;;;;;-4.13;100.00;101510.94;5073739;28;20233;-78
2024/01/11 00:38:53;;;;;;;1.50;1.50;;;;;;;-4.14;100.00;101506.66;5073463;28;20202;-77
2024/01/11 00:41:20;;;;;;;1.20;1.20;;;;;;;-4.14;100.00;101506.66;5038864;28;20260;-78
2024/01/11 00:43:46;;;;;;;1.30;1.30;;;;;;;-4.04;100.00;101504.25;5073769;28;20195;-79
2024/01/11 00:46:13;;;;;;;2.90;2.80;;;;;;;-3.95;100.00;101507.63;5074228;28;20195;-78
2024/01/11 00:48:40;;;;;;;1.40;1.40;;;;;;;-4.05;100.00;101469.53;5054907;28;20203;-77
2024/01/11 00:51:07;;;;;;;1.77;1.77;;;;;;;-3.89;100.00;101484.53;5074059;28;20210;-77
2024/01/11 00:53:34;;;;;;;2.00;2.00;;;;;;;-3.87;100.00;101494.06;5073335;28;20202;-78
2024/01/11 00:56:02;;;;;;;3.97;3.00;;;;;;;-3.80;100.00;101496.41;5072712;28;20195;-78
2024/01/11 00:58:29;;;;;;;1.13;1.13;;;;;;;-3.82;100.00;101492.88;5038108;28;20209;-79
2024/01/11 01:00:56;;;;;;;1.00;1.00;;;;;;;-3.73;100.00;101487.75;5038994;28;20195;-80
2024/01/11 01:03:23;;;;;;;1.40;1.40;;;;;;;-3.69;100.00;101489.81;5073990;28;20198;-80
2024/01/11 01:05:50;;;;;;;2.10;2.03;;;;;;;-3.67;100.00;101488.31;5073509;28;20199;-80
2024/01/11 01:08:16;;;;;;;1.77;1.77;;;;;;;-3.65;100.00;101485.19;5038601;28;20203;-80
2024/01/11 01:10:43;;;;;;;7.70;3.30;;;;;;;-3.65;100.00;101471.63;5054769;28;20207;-79
2024/01/11 01:13:11;;;;;;;1.27;1.27;;;;;;;-3.60;100.00;101466.22;5073526;28;20249;-79
2024/01/11 01:15:38;;;;;;;6.43;1.83;;;;;;;-3.59;100.00;101472.19;5073356;28;20647;-80
2024/01/11 01:18:05;;;;;;;1.40;1.40;;;;;;;-3.69;100.00;101470.44;5073311;28;20591;-82
2024/01/11 01:20:32;;;;;;;1.80;1.80;;;;;;;-3.81;100.00;101443.97;5073295;28;20237;-81
2024/01/11 01:22:59;;;;;;;1.20;1.20;;;;;;;-3.72;100.00;101467.63;5073036;28;20206;-81
2024/01/11 01:25:26;;;;;;;1.47;1.47;;;;;;;-4.19;100.00;101389.75;5072677;28;20696;-81
2024/01/11 01:27:53;;;;;;;1.03;1.03;;;;;;;-3.74;100.00;101463.16;5073117;28;20648;-81
2024/01/11 01:30:21;;;;;;;1.40;1.40;;;;;;;-3.73;100.00;101455.69;5073135;28;20222;-81
2024/01/11 01:32:48;;;;;;;1.73;1.73;;;;;;;-3.87;100.00;101433.25;5075171;28;20580;-81
2024/01/11 01:35:15;;;;;;;1.17;1.17;;;;;;;-3.75;100.00;101454.69;5075825;28;20227;-82
2024/01/11 01:37:42;;;;;;;1.50;1.50;;;;;;;-3.75;100.00;101453.78;5077974;28;20194;-81
2024/01/11 01:40:10;;;;;;;1.27;1.27;;;;;;;-3.85;100.00;101421.63;5077634;28;20645;-81
2024/01/11 01:42:41;;;;;;;1.67;1.57;;;;;;;-3.90;100.00;101416.88;5075572;28;20651;-81
2024/01/11 01:45:09;;;;;;;3.13;2.93;;;;;;;-3.80;100.00;101435.63;5072640;28;20222;-80
2024/01/11 01:47:37;;;;;;;1.20;1.20;;;;;;;-4.03;100.00;101389.50;5072561;28;20246;-81
2024/01/11 01:50:05;;;;;;;1.70;1.70;;;;;;;-3.71;100.00;101436.44;5054075;28;20667;-81
2024/01/11 01:52:34;;;;;;;1.30;1.30;;;;;;;-3.71;100.00;101422.91;5005463;28;20215;-80
2024/01/11 01:55:02;;;;;;;1.30;1.30;;;;;;;-3.70;100.00;101425.56;5074750;28;20217;-81
2024/01/11 01:57:30;;;;;;;1.30;1.30;;;;;;;-3.73;100.00;101422.75;5073831;28;20273;-81
2024/01/11 01:59:57;;;;;;;2.63;2.40;;;;;;;-3.70;100.00;101422.16;5072683;28;20191;-82
2024/01/11 02:02:24;;;;;;;1.10;1.10;;;;;;;-3.77;100.00;101408.03;5072000;28;20210;-81
2024/01/11 02:04:52;;;;;;;1.63;1.63;;;;;;;-3.71;100.00;101416.19;5053458;28;20191;-81
2024/01/11 02:07:20;;;;;;;1.40;1.40;;;;;;;-3.71;100.00;101415.31;5071577;28;20661;-81
2024/01/11 02:09:48;;;;;;;1.70;1.70;;;;;;;-3.70;100.00;101412.91;5072273;28;20213;-81
2024/01/11 02:12:15;;;;;;;4.47;4.07;;;;;;;-3.66;100.00;101409.91;5072000;28;20231;-82
2024/01/11 02:14:42;;;;;;;1.40;1.40;;;;;;;-3.74;100.00;101392.19;5072226;28;20629;-81
2024/01/11 02:17:09;;;;;;;1.43;1.43;;;;;;;-3.61;100.00;101408.69;5072359;28;20649;-80
2024/01/11 02:19:35;;;;;;;1.30;1.30;;;;;;;-3.59;100.00;101412.25;5069868;28;20222;-82
2024/01/11 02:22:22;;;;;;;1.33;1.33;;;;;;;-3.50;100.00;101397.88;5071919;28;20225;-80
2024/01/11 02:24:50;;;;;;;2.77;2.57;;;;;;;-3.51;100.00;101401.19;5069629;28;20237;-81
2024/01/11 02:27:17;;;;;;;1.10;1.10;;;;;;;-3.59;100.00;101402.13;5072167;28;20290;-82
2024/01/11 02:29:43;;;;;;;1.40;1.40;;;;;;;-4.00;100.00;101326.50;5071942;28;20203;-82
2024/01/11 02:32:10;;;;;;;2.00;1.93;;;;;;;-3.56;100.00;101389.72;5071259;28;20223;-82
2024/01/11 02:34:37;;;;;;;1.33;1.33;;;;;;;-3.72;100.00;101378.94;5052560;28;20236;-80
2024/01/11 02:37:05;;;;;;;2.07;2.03;;;;;;;-3.72;100.00;101375.53;5071951;28;20218;-82
2024/01/11 02:39:32;;;;;;;6.87;3.00;;;;;;;-3.72;100.00;101394.16;5071618;28;20203;-80
2024/01/11 02:42:01;;;;;;;1.67;1.67;;;;;;;-3.81;100.00;101367.94;5071785;28;20195;-80
2024/01/11 02:44:28;;;;;;;1.10;1.10;;;;;;;-3.76;100.00;101381.94;5071849;28;20199;-81
2024/01/11 02:46:55;;;;;;;1.67;1.67;;;;;;;-3.73;100.00;101382.22;5071753;28;20207;-81
2024/01/11 02:49:22;;;;;;;1.43;1.43;;;;;;;-3.73;100.00;101388.94;5071801;28;20207;-81
2024/01/11 02:51:48;;;;;;;1.30;1.30;;;;;;;-3.68;100.00;101381.03;5071052;28;20592;-81
2024/01/11 02:54:15;;;;;;;1.53;1.53;;;;;;;-3.66;100.00;101382.03;5071443;28;20195;-80
2024/01/11 02:56:42;;;;;;;1.17;1.17;;;;;;;-3.65;100.00;101386.34;5070641;28;20303;-80
2024/01/11 02:59:10;;;;;;;1.30;1.30;;;;;;;-3.73;100.00;101372.09;5052795;28;20222;-80
2024/01/11 03:01:37;;;;;;;1.20;1.20;;;;;;;-3.72;100.00;101386.56;5070925;28;20198;-80
2024/01/11 03:04:04;;;;;;;1.20;1.20;;;;;;;-3.67;100.00;101382.78;5071144;28;20260;-80
2024/01/11 03:06:31;;;;;;;1.47;1.47;;;;;;;-3.70;100.00;101382.50;5071197;28;20195;-83
2024/01/11 03:08:58;;;;;;;3.27;2.87;;;;;;;-3.80;100.00;101354.53;5071123;28;20203;-82
2024/01/11 03:11:25;;;;;;;2.13;2.00;;;;;;;-3.61;100.00;101383.34;5070893;28;20221;-80
2024/01/11 03:13:51;;;;;;;2.07;1.97;;;;;;;-3.65;100.00;101376.22;5070731;28;20234;-79
2024/01/11 03:16:19;;;;;;;1.27;1.27;;;;;;;-3.77;100.00;101359.88;5070693;28;20801;-80
2024/01/11 03:18:46;;;;;;;2.37;2.27;;;;;;;-3.83;100.00;101368.56;5070626;28;20198;-82
2024/01/11 03:21:13;;;;;;;2.67;2.53;;;;;;;-4.00;100.00;101351.84;5070890;28;20203;-81
2024/01/11 03:23:40;;;;;;;1.40;1.40;;;;;;;-4.10;100.00;101324.75;5070288;28;20195;-80
2024/01/11 03:26:14;;;;;;;2.57;2.47;;;;;;;-3.86;100.00;101353.09;5070781;28;20214;-80
2024/01/11 03:28:41;;;;;;;1.23;1.23;;;;;;;-3.92;100.00;101348.34;5070827;28;20226;-78
2024/01/11 03:31:08;;;;;;;1.43;1.43;;;;;;;-4.12;100.00;101343.09;5070834;28;20225;-78
2024/01/11 03:33:37;;;;;;;12.10;5.33;;;;;;;-4.15;100.00;101332.69;5070836;28;20647;-79
2024/01/11 03:36:08;;;;;;;1.20;1.20;;;;;;;-3.96;100.00;101333.63;5070063;28;20234;-80
2024/01/11 03:38:34;;;;;;;1.63;1.63;;;;;;;-4.10;100.00;101308.66;5068120;28;20288;-82
2024/01/11 03:41:01;;;;;;;3.57;2.00;;;;;;;-3.83;100.00;101328.94;5070859;28;20203;-80
2024/01/11 03:43:28;;;;;;;1.30;1.30;;;;;;;-3.86;100.00;101321.06;5070517;28;20260;-84
2024/01/11 03:45:55;;;;;;;2.33;2.23;;;;;;;-3.98;100.00;101287.00;5070840;28;20202;-82
2024/01/11 03:48:22;;;;;;;1.83;1.83;;;;;;;-3.80;100.00;101314.00;5070876;28;20237;-82
2024/01/11 03:50:50;;;;;;;1.30;1.30;;;;;;;-3.77;100.00;101314.28;5070815;28;20260;-82
2024/01/11 03:53:17;;;;;;;5.87;5.27;;;;;;;-3.85;100.00;101310.16;5070976;28;20233;-82
2024/01/11 03:55:44;;;;;;;1.73;1.73;;;;;;;-4.06;100.00;101298.97;5068978;28;20210;-82
2024/01/11 03:58:10;;;;;;;1.50;1.50;;;;;;;-4.14;100.00;101299.03;5052133;28;20270;-82
2024/01/11 04:00:37;;;;;;;1.13;1.13;;;;;;;-3.90;100.00;101306.34;5070599;28;20210;-82
2024/01/11 04:03:04;;;;;;;1.00;1.00;;;;;;;-3.84;100.00;101306.88;5070946;28;20225;-83
2024/01/11 04:05:31;;;;;;;1.10;1.10;;;;;;;-3.77;100.00;101300.72;5068531;28;20678;-83
2024/01/11 04:07:59;;;;;;;1.50;1.50;;;;;;;-3.70;100.00;101298.88;5070062;28;20199;-82
2024/01/11 04:10:26;;;;;;;1.20;1.20;;;;;;;-3.71;100.00;101299.63;5070221;28;20211;-81
2024/01/11 04:12:53;;;;;;;1.10;1.10;;;;;;;-3.79;100.00;101295.53;5069884;28;20215;-81
2024/01/11 04:15:20;;;;;;;1.13;1.13;;;;;;;-3.93;100.00;101265.53;5069924;28;20662;-80
2024/01/11 04:17:46;;;;;;;1.77;1.67;;;;;;;-3.85;100.00;101264.56;5070377;28;20202;-81
2024/01/11 04:20:13;;;;;;;10.13;2.73;;;;;;;-3.68;100.00;101294.88;5070156;28;20612;-81
2024/01/11 04:22:40;;;;;;;1.93;1.83;;;;;;;-3.68;100.00;101277.13;5069823;28;20289;-80
2024/01/11 04:25:09;;;;;;;1.20;1.20;;;;;;;-3.43;100.00;101291.97;5070396;28;20202;-80
2024/01/11 04:27:36;;;;;;;1.10;1.10;;;;;;;-3.44;100.00;101290.19;5069945;28;20206;-81
2024/01/11 04:30:02;;;;;;;1.07;1.07;;;;;;;-4.05;100.00;101184.25;5070185;28;20206;-80
2024/01/11 04:32:29;;;;;;;1.10;1.10;;;;;;;-3.39;100.00;101278.84;5069814;28;20229;-80
2024/01/11 04:34:56;;;;;;;1.70;1.50;;;;;;;-3.46;100.00;101271.44;5069997;28;20613;-80
2024/01/11 04:37:23;;;;;;;1.10;1.10;;;;;;;-3.65;100.00;101244.47;5069917;28;20202;-80
2024/01/11 04:39:50;;;;;;;1.10;1.10;;;;;;;-3.56;100.00;101264.63;5070283;28;20213;-80
2024/01/11 04:42:18;;;;;;;1.40;1.40;;;;;;;-3.51;100.00;101271.91;5069820;28;20197;-81
2024/01/11 04:44:44;;;;;;;1.13;1.13;;;;;;;-3.50;100.00;101271.13;5069965;28;20191;-82
2024/01/11 04:47:11;;;;;;;1.20;1.20;;;;;;;-3.56;100.00;101251.97;5070317;28;20199;-81
2024/01/11 04:49:39;;;;;;;1.63;1.63;;;;;;;-3.48;100.00;101267.84;5068107;28;20206;-82
2024/01/11 04:52:06;;;;;;;1.30;1.30;;;;;;;-3.59;100.00;101237.38;5070049;28;20210;-81
2024/01/11 04:54:33;;;;;;;1.23;1.23;;;;;;;-3.61;100.00;101268.44;5069922;28;20594;-82
2024/01/11 04:57:00;;;;;;;1.67;1.67;;;;;;;-3.51;100.00;101274.44;5034791;28;20211;-80
2024/01/11 04:59:28;;;;;;;1.93;1.93;;;;;;;-3.35;100.00;101270.75;5050881;28;20199;-81
2024/01/11 05:01:54;;;;;;;8.40;3.63;;;;;;;-3.75;100.00;101198.78;5067350;28;20217;-82
2024/01/11 05:04:21;;;;;;;1.03;1.03;;;;;;;-3.34;100.00;101267.44;5069360;28;20210;-81
2024/01/11 05:06:48;;;;;;;1.77;1.77;;;;;;;-3.37;100.00;101260.47;5069464;28;20207;-81
2024/01/11 05:09:15;;;;;;;1.07;1.07;;;;;;;-3.38;100.00;101257.78;5066627;28;20309;-81
2024/01/11 05:11:42;;;;;;;1.70;1.70;;;;;;;-3.27;100.00;101252.91;5069189;28;20191;-81
2024/01/11 05:14:08;;;;;;;2.20;2.20;;;;;;;-3.20;100.00;101250.16;5068578;28;20227;-80
2024/01/11 05:16:37;;;;;;;1.30;1.30;;;;;;;-3.09;100.00;101240.94;5068941;28;20195;-81
2024/01/11 05:19:03;;;;;;;1.50;1.50;;;;;;;-3.18;100.00;101240.16;5034236;28;20544;-81
2024/01/11 05:21:30;;;;;;;1.40;1.40;;;;;;;-3.11;100.00;101239.94;5072653;28;20195;-80
2024/01/11 05:23:57;;;;;;;1.57;1.57;;;;;;;-3.14;100.00;101242.19;5072662;28;20555;-81
2024/01/11 05:26:24;;;;;;;1.20;1.20;;;;;;;-3.15;100.00;101235.34;5080225;28;20593;-81
2024/01/11 05:28:50;;;;;;;1.80;1.80;;;;;;;-3.34;100.00;101184.66;5078028;28;20197;-81
2024/01/11 05:31:17;;;;;;;1.00;1.00;;;;;;;-3.33;100.00;101190.63;5072663;28;20218;-81
2024/01/11 05:33:45;;;;;;;1.10;1.10;;;;;;;-2.96;100.00;101226.00;5072595;28;20218;-81
2024/01/11 05:36:12;;;;;;;0.97;0.97;;;;;;;-2.95;100.00;101225.25;5072822;28;20222;-81
2024/01/11 05:38:40;;;;;;;1.30;1.30;;;;;;;-3.05;100.00;101203.31;5073142;28;20673;-82
2024/01/11 05:41:07;;;;;;;1.27;1.27;;;;;;;-2.98;100.00;101227.53;5072746;28;20252;-73
2024/01/11 05:43:34;;;;;;;1.03;1.03;;;;;;;-3.06;100.00;101225.97;5072528;28;20199;-77
2024/01/11 05:46:01;;;;;;;4.20;3.30;;;;;;;-2.99;100.00;101215.59;5071124;28;20207;-74
2024/01/11 05:48:28;;;;;;;1.80;1.80;;;;;;;-2.90;100.00;101218.94;5071201;28;20767;-73
2024/01/11 05:50:56;;;;;;;1.23;1.23;;;;;;;-2.88;100.00;101213.97;5071786;28;20696;-72
2024/01/11 05:53:24;;;;;;;1.53;1.53;;;;;;;-2.94;100.00;101221.97;5052488;28;20226;-75
2024/01/11 05:55:51;;;;;;;2.73;1.50;;;;;;;-3.20;100.00;101199.44;5066309;28;20198;-75
2024/01/11 05:58:18;;;;;;;2.80;2.70;;;;;;;-3.05;100.00;101222.69;5071624;28;20207;-73
2024/01/11 06:00:45;;;;;;;1.63;1.63;;;;;;;-3.13;100.00;101172.94;5072244;28;20199;-73
2024/01/11 06:03:13;;;;;;;1.10;1.10;;;;;;;-2.88;100.00;101212.34;5072221;28;20211;-73
2024/01/11 06:05:40;;;;;;;1.87;1.77;;;;;;;-3.01;100.00;101174.00;5071891;28;20207;-72
2024/01/11 06:08:08;;;;;;;1.10;1.10;;;;;;;-2.83;100.00;101200.97;5071649;28;20218;-75
2024/01/11 06:10:35;;;;;;;1.33;1.33;;;;;;;-3.19;100.00;101193.63;5071160;28;20202;-73
2024/01/11 06:13:02;;;;;;;1.33;1.33;;;;;;;-2.85;100.00;101206.66;5072892;28;20285;-73
2024/01/11 06:15:28;;;;;;;0.90;0.90;;;;;;;-2.79;100.00;101213.16;5080709;28;20830;-74
2024/01/11 06:17:55;;;;;;;1.20;1.20;;;;;;;-2.59;100.00;101203.03;5063006;28;20256;-75
2024/01/11 06:20:22;;;;;;;1.00;1.00;;;;;;;-2.85;100.00;101216.81;5081502;28;20214;-73
2024/01/11 06:22:49;;;;;;;2.03;2.03;;;;;;;-3.07;100.00;101168.41;5080084;28;20222;-75
2024/01/11 06:25:18;;;;;;;1.30;1.30;;;;;;;-2.71;100.00;101186.75;5071978;28;20198;-73
2024/01/11 06:27:45;;;;;;;2.40;2.00;;;;;;;-2.50;100.00;101215.63;5071647;28;20207;-70
2024/01/11 06:30:13;;;;;;;1.00;1.00;;;;;;;-3.04;100.00;101138.25;5070481;28;20191;-74
2024/01/11 06:32:40;;;;;;;1.00;1.00;;;;;;;-2.57;100.00;101216.72;5061239;28;20202;-74
2024/01/11 06:35:08;;;;;;;1.47;1.47;;;;;;;-2.52;100.00;101215.47;5026489;28;20239;-75
2024/01/11 06:37:34;;;;;;;1.67;1.67;;;;;;;-2.53;100.00;101205.19;5020030;28;20203;-71
2024/01/11 06:40:03;;;;;;;1.00;1.00;;;;;;;-2.31;100.00;101215.47;5071383;28;20214;-72
2024/01/11 06:42:31;;;;;;;1.10;1.10;;;;;;;-2.17;100.00;101213.34;5070930;28;20211;-73
2024/01/11 06:44:58;;;;;;;1.20;1.20;;;;;;;-2.15;100.00;101208.41;5071441;28;20272;-73
2024/01/11 06:47:26;;;;;;;1.20;1.20;;;;;;;-2.20;100.00;101204.56;5071005;28;20215;-74
2024/01/11 06:49:53;;;;;;;1.60;1.60;;;;;;;-2.31;100.00;101203.69;5071217;28;20206;-74
2024/01/11 06:52:20;;;;;;;1.83;1.83;;;;;;;-2.47;100.00;101161.66;5063541;28;20223;-74
2024/01/11 06:54:47;;;;;;;1.30;1.30;;;;;;;-2.39;100.00;101176.75;5067418;28;20258;-74
2024/01/11 06:57:14;;;;;;;1.63;1.63;;;;;;;-2.20;100.00;101205.47;5071083;28;20202;-71
2024/01/11 06:59:42;;;;;;;5.47;3.23;;;;;;;-2.03;100.00;101191.59;5070927;28;20194;-74
2024/01/11 07:02:09;;;;;;;1.00;1.00;;;;;;;-2.05;100.00;101195.69;5052147;28;20198;-75
2024/01/11 07:04:35;;;;;;;1.20;1.20;;;;;;;-1.88;100.00;101203.03;5070777;28;20203;-76
2024/01/11 07:07:04;;;;;;;1.50;1.50;;;;;;;-2.03;100.00;101166.19;5070908;28;20217;-76
2024/01/11 07:09:31;;;;;;;1.10;1.10;;;;;;;-2.04;100.00;101177.16;5071014;28;20238;-77
2024/01/11 07:11:57;;;;;;;0.87;0.87;;;;;;;-2.45;100.00;101119.50;5071459;28;20696;-73
2024/01/11 07:14:24;;;;;;;1.20;1.20;;;;;;;-1.99;100.00;101191.09;5069071;28;20601;-74
2024/01/11 07:16:52;;;;;;;1.30;1.30;;;;;;;-1.98;100.00;101182.72;5070698;28;20195;-73
2024/01/11 07:19:20;;;;;;;1.30;1.30;;;;;;;-2.15;100.00;101188.06;5070090;28;20217;-74
2024/01/11 07:21:46;;;;;;;1.00;1.00;;;;;;;-2.27;100.00;101165.09;5070554;28;20264;-75
2024/01/11 07:24:13;;;;;;;1.60;1.60;;;;;;;-2.28;100.00;101168.38;5070518;28;20667;-75
2024/01/11 07:26:40;;;;;;;4.00;2.13;;;;;;;-2.20;100.00;101200.38;5048228;28;20216;-75
2024/01/11 07:29:07;;;;;;;1.43;1.43;;;;;;;-2.40;100.00;101207.13;5064427;28;20230;-74
2024/01/11 07:31:34;;;;;;;1.30;1.30;;;;;;;-2.46;100.00;101194.78;5070707;28;20203;-75
2024/01/11 07:34:02;;;;;;;1.20;1.20;;;;;;;-2.46;100.00;101201.53;5070158;28;20223;-74
2024/01/11 07:36:29;;;;;;;1.37;1.37;;;;;;;-2.42;100.00;101204.44;5070770;28;20671;-75
2024/01/11 07:38:57;;;;;;;1.37;1.33;;;;;;;-3.08;100.00;101076.22;5056828;28;20207;-75
2024/01/11 07:41:24;;;;;;;1.00;1.00;;;;;;;-2.54;100.00;101161.16;5070528;28;20199;-75
2024/01/11 07:43:50;;;;;;;2.77;2.27;;;;;;;-2.32;100.00;101198.50;5068632;28;20210;-75
2024/01/11 07:46:17;;;;;;;1.33;1.33;;;;;;;-2.57;100.00;101203.19;5051980;28;20210;-76
2024/01/11 07:48:44;;;;;;;1.30;1.30;;;;;;;-2.58;100.00;101181.97;5060959;28;20222;-75
2024/01/11 07:51:12;;;;;;;2.33;2.23;;;;;;;-2.67;100.00;101168.50;5070452;28;20203;-75
2024/01/11 07:53:40;;;;;;;1.07;1.07;;;;;;;-2.63;100.00;101190.84;5070515;28;20235;-75
2024/01/11 07:56:07;;;;;;;1.07;1.07;;;;;;;-2.70;100.00;101172.41;5052022;28;20289;-74
2024/01/11 07:58:35;;;;;;;0.90;0.90;;;;;;;-2.72;100.00;101159.63;5065958;28;20214;-75
2024/01/11 08:01:02;;;;;;;1.30;1.30;;;;;;;-2.60;100.00;101153.00;5035086;28;20231;-76
2024/01/11 08:03:30;;;;;;;1.37;1.37;;;;;;;-3.09;100.00;101038.03;5070717;28;20289;-75
2024/01/11 08:05:57;;;;;;;1.03;1.03;;;;;;;-2.28;100.00;101186.16;5070189;28;20619;-75
2024/01/11 08:08:25;;;;;;;1.67;1.67;;;;;;;-2.44;100.00;101139.06;5070483;28;20207;-75
2024/01/11 08:10:52;;;;;;;1.10;1.10;;;;;;;-2.23;100.00;101179.81;5070469;28;20340;-74
2024/01/11 08:13:21;;;;;;;1.90;1.67;;;;;;;-2.85;100.00;101079.81;5070182;28;20195;-75
2024/01/11 08:15:48;;;;;;;1.57;1.57;;;;;;;-2.41;100.00;101190.09;5070268;28;20199;-76
2024/01/11 08:18:15;;;;;;;0.90;0.90;;;;;;;-2.69;100.00;101136.13;5070296;28;20210;-76
2024/01/11 08:20:42;;;;;;;1.37;1.37;;;;;;;-2.74;100.00;101156.03;5070348;28;20277;-76
2024/01/11 08:23:08;;;;;;;1.40;1.40;;;;;;;-2.53;100.00;101173.06;5070326;28;20202;-75
2024/01/11 08:25:37;;;;;;;7.20;6.80;;;;;;;-2.66;100.00;101114.44;5070275;28;20639;-75
2024/01/11 08:28:04;;;;;;;1.10;1.10;;;;;;;-2.54;100.00;101106.97;5070009;28;20215;-75
2024/01/11 08:30:30;;;;;;;1.03;1.03;;;;;;;-2.09;100.00;101147.94;5070157;28;20203;-75
2024/01/11 08:32:57;;;;;;;2.80;2.37;;;;;;;-2.03;100.00;101143.34;5069842;28;20198;-73
2024/01/11 08:35:24;;;;;;;1.10;1.10;;;;;;;-1.53;100.00;101139.78;5069670;28;20230;-72
2024/01/11 08:37:51;;;;;;;1.27;1.27;;;;;;;-1.82;100.00;101117.13;5069907;28;20202;-76
2024/01/11 08:40:18;;;;;;;2.23;2.03;;;;;;;-1.67;100.00;101141.22;5067835;28;20209;-75
2024/01/11 08:42:46;;;;;;;1.43;1.43;;;;;;;-1.66;100.00;101131.94;5069810;28;20682;-74
2024/01/11 08:45:17;;;;;;;2.50;2.13;;;;;;;-1.67;100.00;101146.31;5069900;28;20293;-75
2024/01/11 08:47:44;;;;;;;1.33;1.33;;;;;;;-1.79;100.00;101135.19;5069835;28;20213;-75
2024/01/11 08:50:14;;;;;;;1.17;1.17;;;;;;;-1.58;100.00;101152.16;5034300;28;20738;-75
2024/01/11 08:52:41;;;;;;;0.93;0.93;;;;;;;-1.98;100.00;101075.13;5034439;28;20214;-75
2024/01/11 08:55:08;;;;;;;1.00;1.00;;;;;;;-1.90;100.00;101109.66;5071274;28;20222;-74
2024/01/11 08:57:37;;;;;;;2.40;2.30;;;;;;;-1.71;100.00;101130.72;5073636;28;20611;-75
2024/01/11 09:00:06;;;;;;;2.37;2.30;;;;;;;-1.67;100.00;101125.97;5073234;28;20217;-75
2024/01/11 09:02:33;;;;;;;1.23;1.23;;;;;;;-2.00;100.00;101036.91;5073188;28;20199;-74
2024/01/11 09:05:00;;;;;;;1.27;1.27;;;;;;;-1.98;100.00;101035.34;5073485;28;20210;-73
2024/01/11 09:07:27;;;;;;;4.43;2.77;;;;;;;-1.75;100.00;101066.00;5073655;28;20207;-75
2024/01/11 09:09:55;;;;;;;0.80;0.80;;;;;;;-1.61;100.00;101079.81;5073367;28;20207;-74
2024/01/11 09:12:22;;;;;;;0.90;0.90;;;;;;;-1.84;100.00;101060.19;5073437;28;20662;-73
2024/01/11 09:14:49;;;;;;;1.60;1.30;;;;;;;-2.04;100.00;100984.06;5073347;28;20258;-74
2024/01/11 09:17:17;;;;;;;1.37;1.37;;;;;;;-1.46;100.00;101108.97;5073013;28;20206;-75
2024/01/11 09:19:44;;;;;;;0.90;0.90;;;;;;;-1.34;100.00;101096.34;5073548;28;20572;-73
2024/01/11 09:22:11;;;;;;;1.57;1.57;;;;;;;-1.48;100.00;101071.50;5072811;28;20195;-70
2024/01/11 09:24:38;;;;;;;1.60;1.60;;;;;;;-1.43;100.00;101050.75;5073133;28;20190;-75
2024/01/11 09:27:05;;;;;;;1.50;1.50;;;;;;;-1.06;100.00;101087.53;5073187;28;21053;-75
2024/01/11 09:29:32;;;;;;;1.67;1.60;;;;;;;-1.09;100.00;101079.66;5073130;28;20233;-75
2024/01/11 09:31:59;;;;;;;1.10;1.10;;;;;;;-1.08;100.00;101076.34;5072868;28;20198;-74
2024/01/11 09:34:28;;;;;;;0.80;0.80;;;;;;;-1.03;100.00;101072.47;5072589;28;20223;-75
2024/01/11 09:36:58;;;;;;;1.20;1.20;;;;;;;-1.00;100.00;101067.66;5037423;28;20647;-74
2024/01/11 09:39:25;;;;;;;1.30;1.30;;;;;;;-0.99;100.00;101043.94;5072873;28;20551;-75
2024/01/11 09:41:59;;;;;;;1.33;1.30;;;;;;;-0.85;100.00;101012.78;5054453;28;20634;-74
2024/01/11 09:44:26;;;;;;;0.83;0.83;;;;;;;-0.69;100.00;101031.00;5072932;28;20232;-74
2024/01/11 09:46:55;;;;;;;1.37;1.37;;;;;;;-0.57;100.00;101028.47;5072746;28;20199;-76
2024/01/11 09:49:23;;;;;;;1.00;1.00;;;;;;;-0.65;100.00;101045.72;5037434;28;20639;-75
2024/01/11 09:51:52;;;;;;;1.20;1.13;;;;;;;-0.91;100.00;101011.44;5071767;28;20293;-74
2024/01/11 09:54:21;;;;;;;0.90;0.90;;;;;;;-0.83;100.00;101023.09;5066397;28;20231;-73
2024/01/11 09:56:51;;;;;;;1.37;1.37;;;;;;;-0.61;100.00;101024.78;5065351;28;20230;-73
2024/01/11 09:59:22;;;;;;;0.90;0.90;;;;;;;-0.62;100.00;101020.50;5072370;28;20577;-74
2024/01/11 10:01:49;;;;;;;6.20;3.50;;;;;;;-0.45;100.00;101018.28;5072891;28;20214;-73
2024/01/11 10:04:16;;;;;;;1.57;1.57;;;;;;;-1.33;100.00;100828.53;5072812;28;20291;-72
2024/01/11 10:06:44;;;;;;;2.90;2.80;;;;;;;-0.16;100.00;101018.75;5072307;28;20268;-73
2024/01/11 10:09:13;;;;;;;1.43;1.43;;;;;;;-0.25;100.00;100956.94;5072768;28;20671;-72
2024/01/11 10:11:40;;;;;;;0.90;0.90;;;;;;;-0.09;100.00;100970.88;5072299;28;20308;-72
2024/01/11 10:14:08;;;;;;;1.13;1.13;;;;;;;-0.26;100.00;100950.06;5072057;28;20210;-72
2024/01/11 10:16:35;;;;;;;1.23;1.23;;;;;;;-0.73;100.00;100863.50;5072569;28;20194;-73
2024/01/11 10:19:01;;;;;;;1.00;1.00;;;;;;;-0.11;100.00;100969.00;5072368;28;20203;-71
2024/01/11 10:21:30;;;;;;;4.73;4.43;;;;;;;-0.01;100.00;100994.38;5072616;28;20740;-72
2024/01/11 10:23:59;;;;;;;1.07;1.07;;;;;;;0.04;100.00;100987.91;5072142;28;20230;-73
2024/01/11 10:26:27;;;;;;;1.00;1.00;;;;;;;-0.17;100.00;100953.25;5072398;28;20284;-72
2024/01/11 10:28:56;;;;;;;1.27;1.27;;;;;;;-1.39;100.00;100751.78;5053524;28;20710;-73
2024/01/11 10:31:27;;;;;;;1.40;1.40;;;;;;;0.00;100.00;100965.56;5072648;28;20563;-72
2024/01/11 10:33:54;;;;;;;0.90;0.90;;;;;;;-0.12;100.00;100913.72;5072127;28;20253;-72
2024/01/11 10:36:20;;;;;;;1.00;1.00;;;;;;;-0.11;100.00;100918.03;5071487;28;20261;-73
2024/01/11 10:38:48;;;;;;;1.30;1.30;;;;;;;0.18;100.00;100971.06;5072480;28;20207;-74
2024/01/11 10:41:19;;;;;;;1.50;1.50;;;;;;;0.22;99.15;100950.06;5071290;28;20210;-72
2024/01/11 10:43:49;;;;;;;1.17;1.17;;;;;;;0.29;99.21;100942.06;5072293;28;20659;-72
2024/01/11 10:46:16;;;;;;;1.20;1.20;;;;;;;0.35;98.39;100945.94;5071542;28;20206;-72
2024/01/11 10:48:45;;;;;;;0.80;0.80;;;;;;;0.38;98.30;100938.50;5036867;28;20197;-72
2024/01/11 10:51:17;;;;;;;1.40;1.40;;;;;;;0.35;96.76;100934.84;5066748;28;20202;-72
2024/01/11 10:53:45;;;;;;;1.30;1.20;;;;;;;0.16;95.56;100879.16;5071322;28;20720;-73
2024/01/11 10:56:13;;;;;;;0.80;0.80;;;;;;;0.30;94.87;100919.22;5071304;28;20301;-73
2024/01/11 10:58:42;;;;;;;2.77;1.90;;;;;;;-0.24;97.20;100801.63;5071791;28;20221;-73
2024/01/11 11:01:11;;;;;;;1.47;1.47;;;;;;;0.45;96.54;100912.63;5071923;28;20202;-73
2024/01/11 11:03:39;;;;;;;1.10;1.10;;;;;;;0.43;95.69;100897.97;5072068;28;20207;-73
2024/01/11 11:06:08;;;;;;;1.63;1.53;;;;;;;0.39;95.65;100904.53;5071564;28;20237;-73
2024/01/11 11:08:36;;;;;;;0.80;0.80;;;;;;;0.49;96.51;100908.63;5071052;28;20207;-72
2024/01/11 11:11:06;;;;;;;0.93;0.93;;;;;;;0.62;97.21;100889.91;5036184;28;20218;-72
2024/01/11 11:13:34;;;;;;;1.00;1.00;;;;;;;0.45;98.97;100897.31;5071867;28;20701;-73
2024/01/11 11:16:03;;;;;;;1.20;1.20;;;;;;;0.54;98.58;100879.19;5071514;28;20218;-73
2024/01/11 11:18:34;;;;;;;1.30;1.30;;;;;;;0.48;99.99;100861.81;5071413;28;20199;-73
2024/01/11 11:21:01;;;;;;;1.73;1.73;;;;;;;0.47;100.00;100874.47;5071358;28;20199;-73